Flight Track Log - Related Links

Times and Time Zones

All times are in EDT time to prevent confusion due to time zone crossing. See the KLM590 flight status page for this flight to view local times or setup timezone preferences in your user account.

Time Position Orientation Groundspeed Altitude Reporting Facility
EDT Latitude Longitude Course Direction KTS MPH feet Rate Location/Type
Mon 06:39:32 PM 5.7929 -0.1532 North  Level Estimated
Mon 06:40:32 PM 5.9186 -0.1440 North  Level Estimated
Mon 06:41:32 PM 6.0443 -0.1349 North  Level Estimated
Mon 06:42:32 PM 6.1700 -0.1258 North  Level Estimated
Mon 06:43:32 PM 6.2957 -0.1166 North  Level Estimated
Mon 06:44:32 PM 6.4215 -0.1075 North  Level Estimated
Mon 06:45:32 PM 6.5472 -0.0984 North  Level Estimated
Mon 06:46:32 PM 6.6729 -0.0892 North  Level Estimated
Mon 06:47:32 PM 6.7986 -0.0800 North  Level Estimated
Mon 06:48:32 PM 6.9243 -0.0709 North  Level Estimated
Mon 06:49:32 PM 7.0500 -0.0617 North  Level Estimated
Mon 06:50:32 PM 7.1757 -0.0525 North  Level Estimated
Mon 06:51:32 PM 7.3014 -0.0434 North  Level Estimated
Mon 06:52:32 PM 7.4271 -0.0342 North  Level Estimated
Mon 06:53:32 PM 7.5528 -0.0250 North  Level Estimated
Mon 06:54:32 PM 7.6785 -0.0158 North  Level Estimated
Mon 06:55:32 PM 7.8043 -0.0066 North  Level Estimated
Mon 06:56:32 PM 7.9300 0.0026 North  Level Estimated
Mon 06:57:32 PM 8.0557 0.0118 North  Level Estimated
Mon 06:58:32 PM 8.1814 0.0210 North  Level Estimated
Mon 06:59:32 PM 8.3071 0.0302 North  Level Estimated
Mon 07:00:32 PM 8.4328 0.0395 North  Level Estimated
Mon 07:01:32 PM 8.5585 0.0487 10° North  Level Estimated
Mon 07:02:32 PM 8.6842 0.0579 10° North  Level Estimated
Mon 07:03:32 PM 8.8099 0.0672 10° North  Level Estimated
Mon 07:04:32 PM 8.9356 0.0764 10° North  Level Estimated
Mon 07:05:32 PM 9.0614 0.0857 10° North  Level Estimated
Mon 07:06:32 PM 9.1871 0.0949 10° North  Level Estimated
Mon 07:07:32 PM 9.3128 0.1042 10° North  Level Estimated
Mon 07:08:32 PM 9.4385 0.1135 10° North  Level Estimated
Mon 07:09:32 PM 9.5642 0.1228 10° North  Level Estimated
Mon 07:10:32 PM 9.6899 0.1321 10° North  Level Estimated
Mon 07:11:32 PM 9.8156 0.1414 10° North  Level Estimated
Mon 07:12:32 PM 9.9413 0.1507 10° North  Level Estimated
Mon 07:13:32 PM 10.0670 0.1600 10° North  Level Estimated
Mon 07:14:32 PM 10.1927 0.1693 10° North  Level Estimated
Mon 07:15:32 PM 10.3184 0.1786 10° North  Level Estimated
Mon 07:16:32 PM 10.4441 0.1880 10° North  Level Estimated
Mon 07:17:32 PM 10.5698 0.1973 10° North  Level Estimated
Mon 07:18:32 PM 10.6955 0.2067 10° North  Level Estimated
Mon 07:19:32 PM 10.8212 0.2160 10° North  Level Estimated
Mon 07:20:32 PM 10.9469 0.2254 10° North  Level Estimated
Mon 07:21:32 PM 11.0726 0.2347 10° North  Level Estimated
Mon 07:22:32 PM 11.1983 0.2441 10° North  Level Estimated
Mon 07:23:32 PM 11.3240 0.2535 10° North  Level Estimated
Mon 07:24:32 PM 11.4497 0.2629 10° North  Level Estimated
Mon 07:25:32 PM 11.5754 0.2723 10° North  Level Estimated
Mon 07:26:32 PM 11.7011 0.2817 10° North  Level Estimated
Mon 07:27:32 PM 11.8268 0.2912 10° North  Level Estimated
Mon 07:28:32 PM 11.9525 0.3006 10° North  Level Estimated
Mon 07:29:32 PM 12.0782 0.3100 10° North  Level Estimated
Mon 07:30:32 PM 12.2039 0.3195 10° North  Level Estimated
Mon 07:31:32 PM 12.3296 0.3289 10° North  Level Estimated
Mon 07:32:32 PM 12.4553 0.3384 10° North  Level Estimated
Mon 07:33:32 PM 12.5810 0.3479 10° North  Level Estimated
Mon 07:34:32 PM 12.7067 0.3574 10° North  Level Estimated
Mon 07:35:32 PM 12.8324 0.3669 10° North  Level Estimated
Mon 07:36:32 PM 12.9581 0.3764 10° North  Level Estimated
Mon 07:37:32 PM 13.0838 0.3859 10° North  Level Estimated
Mon 07:38:32 PM 13.2095 0.3954 10° North  Level Estimated
Mon 07:39:32 PM 13.3352 0.4049 10° North  Level Estimated
Mon 07:40:32 PM 13.4515 0.4137 10° North  Level Estimated
Mon 07:41:32 PM 13.5679 0.4226 10° North  Level Estimated
Mon 07:42:32 PM 13.6842 0.4314 10° North  Level Estimated
Mon 07:43:32 PM 13.8005 0.4403 10° North  Level Estimated
Mon 07:44:32 PM 13.9168 0.4492 11° North  Level Estimated
Mon 07:45:32 PM 14.0331 0.4580 11° North  Level Estimated
Mon 07:46:32 PM 14.1494 0.4669 11° North  Level Estimated
Mon 07:47:32 PM 14.2657 0.4758 11° North  Level Estimated
Mon 07:48:32 PM 14.3820 0.4847 11° North  Level Estimated
Mon 07:49:32 PM 14.4983 0.4936 11° North  Level Estimated
Mon 07:50:32 PM 14.6146 0.5025 11° North  Level Estimated
Mon 07:51:32 PM 14.7310 0.5115 11° North  Level Estimated
Mon 07:52:32 PM 14.8473 0.5204 11° North  Level Estimated
Mon 07:53:32 PM 14.9636 0.5294 11° North  Level Estimated
Mon 07:54:32 PM 15.0799 0.5383 11° North  Level Estimated
Mon 07:55:32 PM 15.1962 0.5473 11° North  Level Estimated
Mon 07:56:32 PM 15.3125 0.5563 11° North  Level Estimated
Mon 07:57:32 PM 15.4288 0.5653 11° North  Level Estimated
Mon 07:58:32 PM 15.5451 0.5743 11° North  Level Estimated
Mon 07:59:32 PM 15.6614 0.5833 11° North  Level Estimated
Mon 08:00:32 PM 15.7778 0.5923 11° North  Level Estimated
Mon 08:01:32 PM 15.8941 0.6013 11° North  Level Estimated
Mon 08:02:32 PM 16.0104 0.6104 11° North  Level Estimated
Mon 08:03:32 PM 16.1267 0.6194 11° North  Level Estimated
Mon 08:04:32 PM 16.2430 0.6285 11° North  Level Estimated
Mon 08:05:32 PM 16.3593 0.6375 11° North  Level Estimated
Mon 08:06:32 PM 16.4756 0.6466 11° North  Level Estimated
Mon 08:07:32 PM 16.5919 0.6557 11° North  Level Estimated
Mon 08:08:32 PM 16.7082 0.6648 11° North  Level Estimated
Mon 08:09:32 PM 16.8245 0.6739 11° North  Level Estimated
Mon 08:10:32 PM 16.9408 0.6831 11° North  Level Estimated
Mon 08:11:32 PM 17.0571 0.6922 11° North  Level Estimated
Mon 08:12:32 PM 17.1734 0.7013 11° North  Level Estimated
Mon 08:13:32 PM 17.2897 0.7105 11° North  Level Estimated
Mon 08:14:32 PM 17.4060 0.7197 11° North  Level Estimated
Mon 08:15:32 PM 17.5223 0.7289 11° North  Level Estimated
Mon 08:16:32 PM 17.6386 0.7381 11° North  Level Estimated
Mon 08:17:32 PM 17.7549 0.7473 12° North  Level Estimated
Mon 08:18:32 PM 17.8712 0.7565 12° North  Level Estimated
Mon 08:19:32 PM 17.9875 0.7657 12° North  Level Estimated
Mon 08:20:32 PM 18.1038 0.7750 12° North  Level Estimated
Mon 08:21:32 PM 18.2201 0.7842 12° North  Level Estimated
Mon 08:22:32 PM 18.3364 0.7935 12° North  Level Estimated
Mon 08:23:32 PM 18.4527 0.8028 12° North  Level Estimated
Mon 08:24:32 PM 18.5690 0.8121 12° North  Level Estimated
Mon 08:25:32 PM 18.6853 0.8214 12° North  Level Estimated
Mon 08:26:32 PM 18.8016 0.8307 12° North  Level Estimated
Mon 08:27:32 PM 18.9179 0.8400 12° North  Level Estimated
Mon 08:28:32 PM 19.0342 0.8494 12° North  Level Estimated
Mon 08:29:32 PM 19.1505 0.8587 12° North  Level Estimated
Mon 08:30:32 PM 19.2668 0.8681 12° North  Level Estimated
Mon 08:31:32 PM 19.3831 0.8775 12° North  Level Estimated
Mon 08:32:32 PM 19.4994 0.8869 12° North  Level Estimated
Mon 08:33:32 PM 19.6157 0.8963 12° North  Level Estimated
Mon 08:34:32 PM 19.7320 0.9057 12° North  Level Estimated
Mon 08:35:32 PM 19.8483 0.9151 12° North  Level Estimated
Mon 08:36:32 PM 19.9646 0.9246 12° North  Level Estimated
Mon 08:37:32 PM 20.0809 0.9341 12° North  Level Estimated
Mon 08:38:32 PM 20.1972 0.9435 12° North  Level Estimated
Mon 08:39:32 PM 20.3135 0.9530 12° North  Level Estimated
Mon 08:40:32 PM 20.4298 0.9625 12° North  Level Estimated
Mon 08:41:32 PM 20.5460 0.9721 12° North  Level Estimated
Mon 08:42:32 PM 20.6623 0.9816 13° North  Level Estimated
Mon 08:43:32 PM 20.7786 0.9912 13° North  Level Estimated
Mon 08:44:32 PM 20.8949 1.0007 13° North  Level Estimated
Mon 08:45:32 PM 21.0112 1.0103 13° North  Level Estimated
Mon 08:46:32 PM 21.1275 1.0199 13° North  Level Estimated
Mon 08:47:32 PM 21.2438 1.0295 13° North  Level Estimated
Mon 08:48:32 PM 21.3601 1.0391 13° North  Level Estimated
Mon 08:49:32 PM 21.4764 1.0488 13° North  Level Estimated
Mon 08:50:32 PM 21.5927 1.0584 13° North  Level Estimated
Mon 08:51:32 PM 21.7090 1.0681 13° North  Level Estimated
Mon 08:52:32 PM 21.8252 1.0778 13° North  Level Estimated
Mon 08:53:32 PM 21.9415 1.0875 13° North  Level Estimated
Mon 08:54:32 PM 22.0578 1.0972 13° North  Level Estimated
Mon 08:55:32 PM 22.1741 1.1070 13° North  Level Estimated
Mon 08:56:32 PM 22.2903 1.1167 13° North  Level Estimated
Mon 08:57:32 PM 22.4066 1.1265 13° North  Level Estimated
Mon 08:58:32 PM 22.5229 1.1363 13° North  Level Estimated
Mon 08:59:32 PM 22.6392 1.1461 13° North  Level Estimated
Mon 09:00:32 PM 22.7555 1.1559 13° North  Level Estimated
Mon 09:01:32 PM 22.8717 1.1657 13° North  Level Estimated
Mon 09:02:32 PM 22.9880 1.1756 14° North  Level Estimated
Mon 09:03:32 PM 23.1043 1.1855 14° North  Level Estimated
Mon 09:04:32 PM 23.2206 1.1954 14° North  Level Estimated
Mon 09:05:32 PM 23.3369 1.2053 14° North  Level Estimated
Mon 09:06:32 PM 23.4531 1.2152 14° North  Level Estimated
Mon 09:07:32 PM 23.5694 1.2251 14° North  Level Estimated
Mon 09:08:32 PM 23.6857 1.2351 14° North  Level Estimated
Mon 09:09:32 PM 23.8020 1.2450 14° North  Level Estimated
Mon 09:10:32 PM 23.9182 1.2550 14° North  Level Estimated
Mon 09:11:32 PM 24.0345 1.2650 14° North  Level Estimated
Mon 09:12:32 PM 24.1508 1.2751 14° North  Level Estimated
Mon 09:13:32 PM 24.2670 1.2851 14° North  Level Estimated
Mon 09:14:32 PM 24.3833 1.2952 14° North  Level Estimated
Mon 09:15:32 PM 24.4996 1.3053 14° North  Level Estimated
Mon 09:16:32 PM 24.6159 1.3154 14° North  Level Estimated
Mon 09:17:32 PM 24.7321 1.3255 14° North  Level Estimated
Mon 09:18:32 PM 24.8484 1.3356 15° North  Level Estimated
Mon 09:19:32 PM 24.9647 1.3458 15° North  Level Estimated
Mon 09:20:32 PM 25.0809 1.3560 15° North  Level Estimated
Mon 09:21:32 PM 25.1972 1.3662 15° North  Level Estimated
Mon 09:22:32 PM 25.3135 1.3764 15° North  Level Estimated
Mon 09:23:32 PM 25.4298 1.3866 15° North  Level Estimated
Mon 09:24:32 PM 25.5460 1.3969 15° North  Level Estimated
Mon 09:25:32 PM 25.6623 1.4072 15° North  Level Estimated
Mon 09:26:32 PM 25.7785 1.4175 15° North  Level Estimated
Mon 09:27:32 PM 25.8948 1.4278 15° North  Level Estimated
Mon 09:28:32 PM 26.0110 1.4381 15° North  Level Estimated
Mon 09:29:32 PM 26.1273 1.4485 15° North  Level Estimated
Mon 09:30:32 PM 26.2436 1.4589 15° North  Level Estimated
Mon 09:31:32 PM 26.3598 1.4693 16° North  Level Estimated
Mon 09:32:32 PM 26.4761 1.4797 16° North  Level Estimated
Mon 09:33:32 PM 26.5924 1.4901 16° North  Level Estimated
Mon 09:34:32 PM 26.7086 1.5006 16° North  Level Estimated
Mon 09:35:32 PM 26.8249 1.5111 16° North  Level Estimated
Mon 09:36:32 PM 26.9411 1.5216 16° North  Level Estimated
Mon 09:37:32 PM 27.0574 1.5321 16° North  Level Estimated
Mon 09:38:32 PM 27.1736 1.5426 16° North  Level Estimated
Mon 09:39:32 PM 27.2899 1.5532 16° North  Level Estimated
Mon 09:40:32 PM 27.4061 1.5638 16° North  Level Estimated
Mon 09:41:32 PM 27.5224 1.5744 16° North  Level Estimated
Mon 09:42:32 PM 27.6386 1.5850 17° North  Level Estimated
Mon 09:43:32 PM 27.7549 1.5957 17° North  Level Estimated
Mon 09:44:32 PM 27.8711 1.6064 17° North  Level Estimated
Mon 09:45:32 PM 27.9874 1.6171 17° North  Level Estimated
Mon 09:46:32 PM 28.1036 1.6278 17° North  Level Estimated
Mon 09:47:32 PM 28.2199 1.6386 17° North  Level Estimated
Mon 09:48:32 PM 28.3361 1.6494 17° North  Level Estimated
Mon 09:49:32 PM 28.4524 1.6602 17° North  Level Estimated
Mon 09:50:32 PM 28.5686 1.6710 17° North  Level Estimated
Mon 09:51:32 PM 28.6849 1.6818 17° North  Level Estimated
Mon 09:52:32 PM 28.8011 1.6927 18° North  Level Estimated
Mon 09:53:32 PM 28.9173 1.7036 18° North  Level Estimated
Mon 09:54:32 PM 29.0336 1.7145 18° North  Level Estimated
Mon 09:55:32 PM 29.1498 1.7254 18° North  Level Estimated
Mon 09:56:32 PM 29.2661 1.7364 18° North  Level Estimated
Mon 09:57:32 PM 29.3823 1.7474 18° North  Level Estimated
Mon 09:58:32 PM 29.4985 1.7584 18° North  Level Estimated
Mon 09:59:32 PM 29.6148 1.7695 18° North  Level Estimated
Mon 10:00:32 PM 29.7310 1.7805 19° North  Level Estimated
Mon 10:01:32 PM 29.8472 1.7916 19° North  Level Estimated
Mon 10:02:32 PM 29.9635 1.8027 19° North  Level Estimated
Mon 10:03:32 PM 30.0797 1.8139 19° North  Level Estimated
Mon 10:04:32 PM 30.1959 1.8251 19° North  Level Estimated
Mon 10:05:32 PM 30.3122 1.8363 19° North  Level Estimated
Mon 10:06:32 PM 30.4284 1.8475 19° North  Level Estimated
Mon 10:07:32 PM 30.5446 1.8587 20° North  Level Estimated
Mon 10:08:32 PM 30.6609 1.8700 20° North  Level Estimated
Mon 10:09:32 PM 30.7771 1.8813 20° North  Level Estimated
Mon 10:10:32 PM 30.8933 1.8927 20° North  Level Estimated
Mon 10:11:32 PM 31.0095 1.9040 20° North  Level Estimated
Mon 10:12:32 PM 31.1258 1.9154 20° North  Level Estimated
Mon 10:13:32 PM 31.2420 1.9268 21° North  Level Estimated
Mon 10:14:32 PM 31.3582 1.9383 21° North  Level Estimated
Mon 10:15:32 PM 31.4744 1.9498 21° North  Level Estimated
Mon 10:16:32 PM 31.5906 1.9613 21° North  Level Estimated
Mon 10:17:32 PM 31.7069 1.9728 21° North  Level Estimated
Mon 10:18:32 PM 31.8231 1.9843 21° North  Level Estimated
Mon 10:19:32 PM 31.9393 1.9959 22° Northeast  Level Estimated
Mon 10:20:32 PM 32.0555 2.0076 22° Northeast  Level Estimated
Mon 10:21:32 PM 32.1717 2.0192 22° Northeast  Level Estimated
Mon 10:22:32 PM 32.2879 2.0309 22° Northeast  Level Estimated
Mon 10:23:32 PM 32.4041 2.0426 22° Northeast  Level Estimated
Mon 10:24:32 PM 32.5204 2.0543 23° Northeast  Level Estimated
Mon 10:25:32 PM 32.6366 2.0661 23° Northeast  Level Estimated
Mon 10:26:32 PM 32.7528 2.0779 23° Northeast  Level Estimated
Mon 10:27:32 PM 32.8690 2.0897 23° Northeast  Level Estimated
Mon 10:28:32 PM 32.9852 2.1016 24° Northeast  Level Estimated
Mon 10:29:32 PM 33.1014 2.1135 24° Northeast  Level Estimated
Mon 10:30:32 PM 33.2176 2.1254 24° Northeast  Level Estimated
Mon 10:31:32 PM 33.3338 2.1374 24° Northeast  Level Estimated
Mon 10:32:32 PM 33.4500 2.1494 25° Northeast  Level Estimated
Mon 10:33:32 PM 33.5662 2.1614 25° Northeast  Level Estimated
Mon 10:34:32 PM 33.6824 2.1734 25° Northeast  Level Estimated
Mon 10:35:32 PM 33.7986 2.1855 25° Northeast  Level Estimated
Mon 10:36:32 PM 33.9148 2.1976 26° Northeast  Level Estimated
Mon 10:37:32 PM 34.0310 2.2098 26° Northeast  Level Estimated
Mon 10:38:32 PM 34.1472 2.2220 26° Northeast  Level Estimated
Mon 10:39:32 PM 34.2634 2.2342 27° Northeast  Level Estimated
Mon 10:40:32 PM 34.3796 2.2464 27° Northeast  Level Estimated
Mon 10:41:32 PM 34.4958 2.2587 27° Northeast  Level Estimated
Mon 10:42:32 PM 34.6120 2.2710 28° Northeast  Level Estimated
Mon 10:43:32 PM 34.7282 2.2834 28° Northeast  Level Estimated
Mon 10:44:32 PM 34.8443 2.2958 28° Northeast  Level Estimated
Mon 10:45:32 PM 34.9605 2.3082 29° Northeast  Level Estimated
Mon 10:46:32 PM 35.0767 2.3207 29° Northeast  Level Estimated
Mon 10:47:32 PM 35.1929 2.3332 29° Northeast  Level Estimated
Mon 10:48:32 PM 35.3091 2.3457 30° Northeast  Level Estimated
Mon 10:49:32 PM 35.4253 2.3583 30° Northeast  Level Estimated
Mon 10:50:32 PM 35.5415 2.3709 31° Northeast  Level Estimated
Mon 10:51:32 PM 35.6576 2.3835 31° Northeast  Level Estimated
Mon 10:52:32 PM 35.7738 2.3962 31° Northeast  Level Estimated
Mon 10:53:32 PM 35.8900 2.4089 32° Northeast  Level Estimated
Mon 10:54:32 PM 36.0062 2.4216 32° Northeast  Level Estimated
Mon 10:55:32 PM 36.1223 2.4344 33° Northeast  Level Estimated
Mon 10:56:32 PM 36.2385 2.4473 33° Northeast  Level Estimated
Mon 10:57:32 PM 36.3547 2.4601 34° Northeast  Level Estimated
Mon 10:58:32 PM 36.4709 2.4730 34° Northeast  Level Estimated
Mon 10:59:32 PM 36.5870 2.4860 35° Northeast  Level Estimated
Mon 11:00:32 PM 36.7032 2.4989 36° Northeast  Level Estimated
Mon 11:01:32 PM 36.8194 2.5120 36° Northeast  Level Estimated
Mon 11:02:32 PM 36.9355 2.5250 37° Northeast  Level Estimated
Mon 11:03:32 PM 37.0517 2.5381 37° Northeast  Level Estimated
Mon 11:04:32 PM 37.1678 2.5513 38° Northeast  Level Estimated
Mon 11:05:32 PM 37.2840 2.5644 39° Northeast  Level Estimated
Mon 11:06:32 PM 37.4002 2.5777 40° Northeast  Level Estimated
Mon 11:07:32 PM 37.5163 2.5909 40° Northeast  Level Estimated
Mon 11:08:32 PM 37.6325 2.6042 41° Northeast  Level Estimated
Mon 11:09:32 PM 37.7486 2.6176 42° Northeast  Level Estimated
Mon 11:10:32 PM 37.8648 2.6310 43° Northeast  Level Estimated
Mon 11:11:32 PM 37.9809 2.6444 44° Northeast  Level Estimated
Mon 11:12:32 PM 38.0971 2.6579 44° Northeast  Level Estimated
Mon 11:13:32 PM 38.2132 2.6714 45° Northeast  Level Estimated
Mon 11:14:32 PM 38.3294 2.6849 46° Northeast  Level Estimated
Mon 11:15:32 PM 38.4455 2.6985 47° Northeast  Level Estimated
Mon 11:16:32 PM 38.5616 2.7122 48° Northeast  Level Estimated
Mon 11:17:32 PM 38.6778 2.7259 49° Northeast  Level Estimated
Mon 11:18:32 PM 38.7939 2.7396 51° Northeast  Level Estimated
Mon 11:19:32 PM 38.9101 2.7534 52° Northeast  Level Estimated
Mon 11:20:32 PM 39.0262 2.7672 53° Northeast  Level Estimated
Mon 11:21:32 PM 39.1423 2.7811 54° Northeast  Level Estimated
Mon 11:22:32 PM 39.2585 2.7950 56° Northeast  Level Estimated
Mon 11:23:32 PM 39.3746 2.8090 57° Northeast  Level Estimated
Mon 11:24:32 PM 39.4907 2.8230 58° Northeast  Level Estimated
Mon 11:25:32 PM 39.6068 2.8370 60° Northeast  Level Estimated
Mon 11:26:32 PM 39.7230 2.8511 61° Northeast  Level Estimated
Mon 11:27:32 PM 39.8391 2.8653 63° Northeast  Level Estimated
Mon 11:28:32 PM 39.9552 2.8795 65° Northeast  Level Estimated
Mon 11:29:32 PM 40.0713 2.8937 66° East  Level Estimated
Mon 11:30:32 PM 40.1875 2.9080 68° East  Level Estimated
Mon 11:31:32 PM 40.3036 2.9223 70° East  Level Estimated
Mon 11:32:32 PM 40.4197 2.9367 72° East  Level Estimated
Mon 11:33:32 PM 40.5358 2.9512 74° East  Level Estimated
Mon 11:34:53 PM 41.3455 6.9980 358° North 442 509 38,000  Level FlightAware ADS-B
Mon 11:35:24 PM 41.4095 6.9957 358° North 445 512 38,000  Level FlightAware ADS-B
Mon 11:35:55 PM 41.4738 6.9933 358° North 446 513 38,000  Level FlightAware ADS-B
Mon 11:36:26 PM 41.5390 6.9910 358° North 447 514 38,000  Level FlightAware ADS-B
Mon 11:36:59 PM 41.6053 6.9878 357° North 443 510 38,000  Level FlightAware ADS-B
Mon 11:37:30 PM 41.6683 6.9838 357° North 442 509 38,000  Level FlightAware ADS-B
Mon 11:38:00 PM 41.7307 6.9800 357° North 442 509 38,000  Level FlightAware ADS-B
Mon 11:38:31 PM 41.7942 6.9763 357° North 444 511 38,000  Level FlightAware ADS-B
Mon 11:39:03 PM 41.8579 6.9725 357° North 445 512 38,000  Level FlightAware ADS-B
Mon 11:39:33 PM 41.9214 6.9687 358° North 446 513 38,000  Level FlightAware ADS-B
Mon 11:40:03 PM 41.9839 6.9651 357° North 445 512 38,000  Level FlightAware ADS-B
Mon 11:40:34 PM 42.0451 6.9615 358° North 445 512 38,000  Level FlightAware ADS-B
Mon 11:41:04 PM 42.1081 6.9578 357° North 445 512 38,000  Level FlightAware ADS-B
Mon 11:41:34 PM 42.1704 6.9541 357° North 447 514 38,000  Level FlightAware ADS-B
Mon 11:42:05 PM 42.2349 6.9502 358° North 448 516 38,000  Level FlightAware ADS-B
Mon 11:42:35 PM 42.2964 6.9466 357° North 451 519 38,000  Level FlightAware ADS-B
Mon 11:43:06 PM 42.3598 6.9427 357° North 451 519 38,000  Level FlightAware ADS-B
Mon 11:43:36 PM 42.4251 6.9388 358° North 453 521 38,000  Level FlightAware ADS-B
Mon 11:44:16 PM 42.5060 6.9340 357° North 450 518 38,000  Level FlightAware ADS-B
Mon 11:44:46 PM 42.5700 6.9301 357° North 450 518 38,000  Level FlightAware ADS-B
Mon 11:45:16 PM 42.6336 6.9262 357° North 450 518 38,000  Level FlightAware ADS-B
Mon 11:45:48 PM 42.6986 6.9223 357° North 451 519 38,000  Level FlightAware ADS-B
Mon 11:46:19 PM 42.7624 6.9185 357° North 451 519 38,000  Level FlightAware ADS-B
Mon 11:46:49 PM 42.8258 6.9147 357° North 451 519 38,000  Level FlightAware ADS-B
Mon 11:47:24 PM 42.8989 6.9103 357° North 451 519 38,000  Level FlightAware ADS-B
Mon 11:47:55 PM 42.9635 6.9064 357° North 452 520 38,000  Level FlightAware ADS-B
Mon 11:48:26 PM 43.0283 6.9024 357° North 452 520 38,000  Level FlightAware ADS-B
Mon 11:48:56 PM 43.0921 6.8985 357° North 450 518 38,000  Level FlightAware ADS-B
Mon 11:49:26 PM 43.1528 6.8948 357° North 450 518 38,000  Level FlightAware ADS-B
Mon 11:49:56 PM 43.2160 6.8909 357° North 450 518 38,000  Level FlightAware ADS-B
Mon 11:50:26 PM 43.2796 6.8869 357° North 450 518 38,000  Level FlightAware ADS-B
Mon 11:50:57 PM 43.3409 6.8831 357° North 452 520 38,000  Level FlightAware ADS-B
Mon 11:51:27 PM 43.4045 6.8791 357° North 453 521 38,000  Level FlightAware ADS-B
Mon 11:51:58 PM 43.4703 6.8751 357° North 453 521 38,000  Level FlightAware ADS-B
Mon 11:52:28 PM 43.5339 6.8712 357° North 452 520 38,000  Level FlightAware ADS-B
Mon 11:53:00 PM 43.5975 6.8673 357° North 447 514 38,000  Level FlightAware ADS-B
Mon 11:53:30 PM 43.6608 6.8632 357° North 442 509 38,000  Level FlightAware ADS-B
Mon 11:54:01 PM 43.7239 6.8592 357° North 444 511 38,000  Level FlightAware ADS-B
Mon 11:54:31 PM 43.7878 6.8553 357° North 443 510 38,000  Level FlightAware ADS-B
Mon 11:55:02 PM 43.8492 6.8514 357° North 444 511 38,000  Level FlightAware ADS-B
Mon 11:55:33 PM 43.9119 6.8474 357° North 444 511 38,000  Level FlightAware ADS-B
Mon 11:56:04 PM 43.9780 6.8434 357° North 443 510 38,000  Level FlightAware ADS-B
Mon 11:56:40 PM 44.0495 6.8388 357° North 443 510 38,000  Level FlightAware ADS-B
Mon 11:57:12 PM 44.1156 6.8345 358° North 445 512 38,000  Level FlightAware ADS-B
Mon 11:57:43 PM 44.1791 6.8308 357° North 447 514 38,000  Level FlightAware ADS-B
Mon 11:58:13 PM 44.2412 6.8268 357° North 449 517 38,000  Level FlightAware ADS-B
Mon 11:58:44 PM 44.3060 6.8226 357° North 451 519 38,000  Level FlightAware ADS-B
Mon 11:59:14 PM 44.3703 6.8184 357° North 452 520 38,000  Level FlightAware ADS-B
Mon 11:59:49 PM 44.4413 6.8138 357° North 452 520 38,000  Level FlightAware ADS-B
Tue 12:00:23 AM 44.5122 6.8093 357° North 449 517 38,000  Level FlightAware ADS-B
Tue 12:00:54 AM 44.5773 6.8052 357° North 449 517 38,000  Level FlightAware ADS-B
Tue 12:01:27 AM 44.6451 6.8003 355° North 451 519 38,000  Level FlightAware ADS-B
Tue 12:01:59 AM 44.7107 6.7922 355° North 448 516 38,000  Level FlightAware ADS-B
Tue 12:02:33 AM 44.7815 6.7832 355° North 447 514 38,000  Level FlightAware ADS-B
Tue 12:03:05 AM 44.8471 6.7754 351° North 449 517 38,000  Level FlightAware ADS-B
Tue 12:10:32 AM 45.7043 6.5729 350° North  Level Estimated
Tue 12:11:32 AM 45.8193 6.5452 350° North  Level Estimated
Tue 12:12:32 AM 45.9343 6.5175 350° North  Level Estimated
Tue 12:13:32 AM 46.0493 6.4896 350° North  Level Estimated
Tue 12:14:32 AM 46.1643 6.4616 350° North  Level Estimated
Tue 12:15:32 AM 46.2793 6.4335 350° North  Level Estimated
Tue 12:16:32 AM 46.3943 6.4053 350° North  Level Estimated
Tue 12:17:32 AM 46.5093 6.3769 350° North  Level Estimated
Tue 12:18:32 AM 46.6243 6.3485 350° North  Level Estimated
Tue 12:19:32 AM 46.7393 6.3199 350° North  Level Estimated
Tue 12:20:32 AM 46.8542 6.2912 350° North  Level Estimated
Tue 12:21:32 AM 46.9692 6.2623 350° North  Level Estimated
Tue 12:22:32 AM 47.0841 6.2334 350° North  Level Estimated
Tue 12:23:32 AM 47.1991 6.2043 350° North  Level Estimated
Tue 12:24:32 AM 47.3140 6.1751 350° North  Level Estimated
Tue 12:25:32 AM 47.4289 6.1457 350° North  Level Estimated
Tue 12:26:32 AM 47.5438 6.1163 350° North  Level Estimated
Tue 12:27:32 AM 47.6587 6.0867 350° North  Level Estimated
Tue 12:28:32 AM 47.7737 6.0570 350° North  Level Estimated
Tue 12:29:32 AM 47.8885 6.0271 350° North  Level Estimated
Tue 12:30:32 AM 48.0034 5.9971 350° North  Level Estimated
Tue 12:31:32 AM 48.1183 5.9670 350° North  Level Estimated
Tue 12:32:32 AM 48.2332 5.9367 350° North  Level Estimated
Tue 12:33:32 AM 48.3480 5.9063 350° North  Level Estimated
Tue 12:34:32 AM 48.4629 5.8758 350° North  Level Estimated
Tue 12:35:32 AM 48.5778 5.8451 350° North  Level Estimated
Tue 12:36:32 AM 48.6926 5.8143 350° North  Level Estimated
Tue 12:37:32 AM 48.8074 5.7834 350° North  Level Estimated
Tue 12:38:32 AM 48.9223 5.7523 350° North  Level Estimated
Tue 12:39:32 AM 49.0371 5.7210 350° North  Level Estimated
Tue 12:40:32 AM 49.1545 5.6890 350° North  Level Estimated
Tue 12:41:32 AM 49.2719 5.6567 350° North  Level Estimated
Tue 12:42:32 AM 49.3894 5.6243 350° North  Level Estimated
Tue 12:43:32 AM 49.5068 5.5917 350° North  Level Estimated
Tue 12:44:32 AM 49.6242 5.5590 350° North  Level Estimated
Tue 12:45:32 AM 49.7416 5.5261 350° North  Level Estimated
Tue 12:46:32 AM 49.8590 5.4931 350° North  Level Estimated
Tue 12:47:32 AM 49.9763 5.4599 350° North  Level Estimated
Tue 12:48:32 AM 50.0937 5.4265 350° North  Level Estimated
Tue 12:49:32 AM 50.2110 5.3930 350° North  Level Estimated
Tue 12:50:32 AM 50.3284 5.3593 350° North  Level Estimated
Tue 12:51:32 AM 50.4457 5.3255 350° North  Level Estimated
Tue 12:52:32 AM 50.5630 5.2914 350° North  Level Estimated
Tue 12:53:32 AM 50.6803 5.2572 350° North  Level Estimated
Tue 12:54:32 AM 50.7976 5.2229 349° North  Level Estimated
Tue 12:55:32 AM 50.9149 5.1883 349° North  Level Estimated
Tue 12:56:32 AM 51.0322 5.1536 349° North  Level Estimated
Tue 12:57:32 AM 51.1495 5.1187 349° North  Level Estimated
Tue 12:58:32 AM 51.2668 5.0837 349° North  Level Estimated
Tue 12:59:32 AM 51.3840 5.0484 349° North  Level Estimated
Tue 01:00:32 AM 51.5012 5.0130 349° North  Level Estimated
Tue 01:01:32 AM 51.6185 4.9774 349° North  Level Estimated
Tue 01:02:32 AM 51.7357 4.9416 349° North  Level Estimated
Tue 01:03:32 AM 51.8529 4.9056 349° North  Level Estimated
Tue 01:04:32 AM 51.9701 4.8694 349° North  Level Estimated
Tue 01:05:32 AM 52.0873 4.8331 349° North  Level Estimated
Tue 01:06:32 AM 52.2045 4.7965 349° North  Level Estimated
Tue 01:07:32 AM 52.3216 4.7598 169° South  Level Estimated
Tue 01:08:32 AM 52.2045 4.7965 349° North  Level Estimated
Tue 01:09:32 AM 52.3196 4.7604 169° South  Level Estimated
Tue 01:10:32 AM 52.2045 4.7965 349° North  Level Estimated
Tue 01:11:32 AM 52.3196 4.7604 169° South  Level Estimated
Tue 01:12:32 AM 52.2045 4.7965 349° North  Level Estimated
Tue 01:13:32 AM 52.3196 4.7604 169° South  Level Estimated
Tue 01:14:32 AM 52.2045 4.7965 349° North  Level Estimated
Tue 01:15:32 AM 52.3196 4.7604 169° South  Level Estimated
Tue 01:16:32 AM 52.2045 4.7965 349° North  Level Estimated
Tue 01:17:32 AM 52.3196 4.7604 169° South  Level Estimated
Tue 01:18:32 AM 52.2045 4.7965 349° North  Level Estimated
Tue 01:19:32 AM 52.3196 4.7604 169° South  Level Estimated
Tue 01:20:32 AM 52.2045 4.7965 349° North  Level Estimated
Tue 01:21:32 AM 52.3196 4.7604 169° South  Level Estimated
Tue 01:22:32 AM 52.2045 4.7965 349° North  Level Estimated
Tue 01:23:32 AM 52.3196 4.7604 169° South  Level Estimated
Tue 01:24:32 AM 52.2045 4.7965 349° North  Level Estimated
Tue 01:25:32 AM 52.3196 4.7604 169° South  Level Estimated
Tue 01:26:32 AM 52.2045 4.7965 349° North  Level Estimated
Tue 01:27:32 AM 52.3196 4.7604 169° South  Level Estimated
Tue 01:28:32 AM 52.2045 4.7965 349° North  Level Estimated
Tue 01:29:32 AM 52.3196 4.7604 169° South  Level Estimated
Tue 01:30:32 AM 52.2045 4.7965 349° North  Level Estimated
Tue 01:31:32 AM 52.3196 4.7604 169° South  Level Estimated
Tue 01:32:32 AM 52.2045 4.7965 349° North  Level Estimated
Tue 01:33:32 AM 52.3196 4.7604 349° North  Level Estimated

Login

Don't have an account? Register now (free) for customized features, flight alerts, and more!